Time;durP1;ratioP1;P1;durP2;ratioP2;P2;SDS_P1;SDS_P2;PMS_P1;PMS_P2;Temp;Humidity;BMP_temperature;BMP_pressure;BME280_temperature;BME280_humidity;BME280_pressure;Samples;Min_cycle;Max_cycle;Signal;HPM_P1;HPM_P2
2022/12/16 00:00:10;;;;;;;18.70;9.45;;;;;;;0.50;70.79;98380.72;344911;28;1267;-75
2022/12/16 00:00:23;;;;;;;18.20;9.52;;;;;;;0.52;70.92;98379.00;344955;28;1227;-76
2022/12/16 00:00:35;;;;;;;19.15;9.90;;;;;;;0.53;70.04;98375.59;344682;28;1322;-76
2022/12/16 00:00:47;;;;;;;22.50;10.60;;;;;;;0.58;70.78;98373.78;343829;28;1474;-76
2022/12/16 00:01:23;;;;;;;21.48;10.07;;;;;;;0.59;70.49;98375.50;343702;28;1690;-76
2022/12/16 00:01:35;;;;;;;19.30;10.25;;;;;;;0.63;70.16;98377.16;344566;28;1693;-76
2022/12/16 00:01:47;;;;;;;18.45;9.93;;;;;;;0.57;69.93;98372.13;344740;28;1215;-75
2022/12/16 00:01:59;;;;;;;17.13;9.55;;;;;;;0.59;70.31;98370.38;344034;28;1052;-75
2022/12/16 00:02:12;;;;;;;17.95;10.10;;;;;;;0.57;70.40;98374.69;345672;28;1899;-76
2022/12/16 00:02:24;;;;;;;20.42;10.90;;;;;;;0.52;70.98;98368.75;344454;28;2057;-78
2022/12/16 00:02:36;;;;;;;20.70;10.68;;;;;;;0.50;70.78;98378.16;344479;28;1765;-75
2022/12/16 00:02:50;;;;;;;19.52;10.30;;;;;;;0.54;70.29;98377.25;344665;28;1027;-75
2022/12/16 00:03:02;;;;;;;18.83;10.13;;;;;;;0.53;70.75;98373.03;344578;28;1037;-76
2022/12/16 00:03:14;;;;;;;18.92;10.40;;;;;;;0.56;71.11;98373.84;344705;28;1184;-76
2022/12/16 00:03:26;;;;;;;19.23;10.20;;;;;;;0.56;70.70;98380.66;343474;28;1010;-75
2022/12/16 00:03:39;;;;;;;19.85;10.05;;;;;;;0.56;70.36;98376.41;343969;28;1210;-76
2022/12/16 00:03:53;;;;;;;19.20;9.82;;;;;;;0.58;70.06;98373.78;344818;28;1144;-77
2022/12/16 00:04:06;;;;;;;18.50;9.73;;;;;;;0.58;70.39;98368.69;345654;28;1259;-76
2022/12/16 00:04:45;;;;;;;18.52;10.10;;;;;;;0.65;69.96;98370.31;345918;28;1271;-77
2022/12/16 00:04:57;;;;;;;18.13;10.10;;;;;;;0.66;69.59;98374.53;339226;29;1091;-77
2022/12/16 00:05:09;;;;;;;17.33;9.75;;;;;;;0.69;69.49;98366.84;343735;28;6319;-78
2022/12/16 00:05:21;;;;;;;17.75;9.73;;;;;;;0.72;70.16;98371.06;345609;28;2904;-76
2022/12/16 00:05:36;;;;;;;17.23;9.77;;;;;;;0.73;70.35;98367.66;346083;28;1490;-76
2022/12/16 00:05:55;;;;;;;18.48;9.85;;;;;;;0.78;69.35;98371.81;345896;28;2953;-76
2022/12/16 00:06:08;;;;;;;17.65;9.40;;;;;;;0.81;69.27;98375.22;345237;28;1545;-76
2022/12/16 00:06:20;;;;;;;17.75;9.27;;;;;;;0.84;69.85;98364.94;345416;28;1453;-76
2022/12/16 00:06:33;;;;;;;18.58;9.52;;;;;;;0.84;69.75;98375.16;345751;28;1450;-77
2022/12/16 00:06:45;;;;;;;19.10;9.48;;;;;;;0.86;69.34;98376.00;345922;28;1596;-78
2022/12/16 00:06:56;;;;;;;18.38;9.32;;;;;;;0.86;69.51;98376.00;345500;28;1253;-76
2022/12/16 00:07:08;;;;;;;16.83;9.35;;;;;;;0.80;69.51;98371.81;344911;28;2576;-76
2022/12/16 00:07:21;;;;;;;17.83;9.80;;;;;;;0.84;68.83;98370.06;346211;28;1203;-76
2022/12/16 00:07:33;;;;;;;18.17;10.00;;;;;;;0.83;69.08;98368.38;345875;28;1043;-76
2022/12/16 00:07:47;;;;;;;18.38;9.73;;;;;;;0.84;69.81;98370.06;345159;28;1847;-76
2022/12/16 00:07:59;;;;;;;17.92;9.63;;;;;;;0.84;69.06;98370.06;345111;28;1760;-76
2022/12/16 00:08:11;;;;;;;17.92;9.90;;;;;;;0.86;69.35;98369.16;344742;28;1911;-77
2022/12/16 00:08:23;;;;;;;18.38;9.80;;;;;;;0.76;69.42;98373.53;345669;28;1044;-75
2022/12/16 00:08:36;;;;;;;19.08;9.52;;;;;;;0.68;70.42;98370.25;346452;28;1261;-76
2022/12/16 00:08:48;;;;;;;18.95;9.63;;;;;;;0.71;70.32;98370.22;344695;28;1178;-75
2022/12/16 00:09:03;;;;;;;19.67;10.05;;;;;;;0.62;70.86;98375.44;344830;28;1087;-76
2022/12/16 00:09:15;;;;;;;20.02;10.13;;;;;;;0.64;70.49;98371.16;344514;28;1938;-75
2022/12/16 00:09:27;;;;;;;18.77;10.07;;;;;;;0.67;70.15;98373.69;345058;28;1103;-75
2022/12/16 00:09:39;;;;;;;17.13;9.85;;;;;;;0.69;70.28;98376.22;343449;28;1792;-75
2022/12/16 00:09:51;;;;;;;16.73;9.65;;;;;;;0.70;70.51;98370.25;344365;28;1740;-78
2022/12/16 00:10:03;;;;;;;18.45;9.65;;;;;;;0.72;70.60;98374.47;344595;28;1687;-76
2022/12/16 00:10:15;;;;;;;18.95;9.80;;;;;;;0.69;70.36;98371.97;344108;28;1183;-77
2022/12/16 00:10:51;;;;;;;19.98;9.98;;;;;;;0.66;70.45;98377.09;342394;28;1155;-75
2022/12/16 00:11:00;;;;;;;19.15;9.88;;;;;;;0.50;70.55;98378.16;344806;28;1114;-76
2022/12/16 00:11:12;;;;;;;18.55;10.00;;;;;;;0.47;70.88;98373.09;344697;28;2636;-76
2022/12/16 00:11:24;;;;;;;18.00;9.95;;;;;;;0.46;71.27;98376.50;344595;28;1196;-75
2022/12/16 00:11:36;;;;;;;16.92;9.77;;;;;;;0.42;71.16;98379.97;344741;28;1270;-76
2022/12/16 00:11:48;;;;;;;17.55;9.50;;;;;;;0.42;71.58;98374.88;344586;28;1214;-76
2022/12/16 00:12:00;;;;;;;18.98;9.48;;;;;;;0.37;71.26;98380.03;344592;28;1582;-75
2022/12/16 00:12:12;;;;;;;20.30;9.45;;;;;;;0.29;71.26;98382.69;345086;28;1187;-76
2022/12/16 00:12:24;;;;;;;19.90;9.73;;;;;;;0.27;71.88;98379.28;344749;28;1403;-76
2022/12/16 00:12:36;;;;;;;19.75;10.20;;;;;;;0.23;71.04;98377.63;345983;28;1309;-76
2022/12/16 00:12:48;;;;;;;20.58;10.63;;;;;;;0.21;71.19;98381.94;345744;28;1805;-76
2022/12/16 00:13:02;;;;;;;20.65;10.63;;;;;;;0.16;70.82;98376.88;345091;28;1568;-76
2022/12/16 00:13:21;;;;;;;19.63;10.10;;;;;;;0.17;71.01;98388.78;346153;28;1186;-75
2022/12/16 00:13:34;;;;;;;19.80;9.85;;;;;;;0.20;71.65;98382.78;344220;28;1614;-75
2022/12/16 00:13:48;;;;;;;20.52;10.18;;;;;;;0.23;71.49;98381.91;344722;28;1049;-76
2022/12/16 00:14:01;;;;;;;18.77;9.65;;;;;;;0.28;71.23;98375.03;344963;28;1098;-76
2022/12/16 00:14:13;;;;;;;17.75;9.40;;;;;;;0.31;71.03;98382.66;344610;28;1023;-76
2022/12/16 00:14:26;;;;;;;18.88;10.00;;;;;;;0.34;70.58;98391.16;345837;28;1400;-76
2022/12/16 00:14:38;;;;;;;18.35;9.90;;;;;;;0.29;70.95;98382.69;343163;28;1228;-76
2022/12/16 00:14:50;;;;;;;18.13;10.02;;;;;;;0.25;70.71;98381.03;343509;28;1518;-76
2022/12/16 00:15:03;;;;;;;18.58;10.05;;;;;;;0.29;70.14;98380.13;344896;28;1276;-76
2022/12/16 00:15:15;;;;;;;18.33;10.02;;;;;;;0.29;70.02;98372.47;345054;28;1067;-76
2022/12/16 00:15:27;;;;;;;17.60;9.68;;;;;;;0.32;70.33;98377.53;343445;28;1063;-75
2022/12/16 00:15:39;;;;;;;17.48;9.30;;;;;;;0.35;70.74;98377.50;344769;28;1281;-75
2022/12/16 00:15:51;;;;;;;17.58;9.38;;;;;;;0.34;70.77;98380.06;345408;28;1921;-76
2022/12/16 00:16:07;;;;;;;19.20;10.20;;;;;;;0.32;70.47;98384.34;346123;28;1067;-76
2022/12/16 00:16:20;;;;;;;18.75;10.20;;;;;;;0.34;71.09;98375.81;344646;28;2207;-77
2022/12/16 00:16:32;;;;;;;17.10;9.68;;;;;;;0.36;70.50;98374.09;344860;28;1976;-77
2022/12/16 00:16:44;;;;;;;17.58;9.38;;;;;;;0.41;70.33;98375.75;345263;28;1181;-76
2022/12/16 00:16:56;;;;;;;18.38;9.43;;;;;;;0.45;70.76;98382.50;346021;28;1058;-77
2022/12/16 00:17:08;;;;;;;18.73;9.63;;;;;;;0.47;70.89;98380.78;346246;28;1204;-77
2022/12/16 00:17:20;;;;;;;19.88;9.70;;;;;;;0.49;70.81;98379.88;346008;28;1275;-75
2022/12/16 00:17:31;;;;;;;21.25;9.73;;;;;;;0.52;70.64;98379.81;346221;28;1114;-76
2022/12/16 00:17:43;;;;;;;21.13;10.00;;;;;;;0.55;71.14;98384.09;346098;28;1199;-75
2022/12/16 00:17:55;;;;;;;19.80;10.20;;;;;;;0.57;70.59;98380.63;346586;28;1137;-76
2022/12/16 00:18:07;;;;;;;19.73;10.10;;;;;;;0.61;70.44;98384.00;346282;28;1218;-76
2022/12/16 00:18:19;;;;;;;18.38;9.75;;;;;;;0.64;70.73;98378.00;345928;28;1094;-77
2022/12/16 00:18:31;;;;;;;18.73;9.68;;;;;;;0.67;70.89;98383.09;344969;28;1066;-76
2022/12/16 00:18:44;;;;;;;18.52;9.65;;;;;;;0.67;70.49;98378.81;344942;28;1255;-75
2022/12/16 00:18:56;;;;;;;18.50;10.00;;;;;;;0.69;71.00;98384.75;345393;28;1189;-76
2022/12/16 00:19:08;;;;;;;18.17;9.95;;;;;;;0.72;69.90;98387.25;346463;28;1018;-75
2022/12/16 00:19:19;;;;;;;17.58;9.63;;;;;;;0.74;70.09;98374.44;346184;28;1449;-76
2022/12/16 00:19:31;;;;;;;18.08;9.82;;;;;;;0.76;70.27;98381.22;345765;28;2052;-76
2022/12/16 00:19:43;;;;;;;17.85;9.95;;;;;;;0.79;69.66;98380.34;346192;28;1008;-76
2022/12/16 00:19:55;;;;;;;17.33;9.43;;;;;;;0.82;69.69;98387.13;346103;28;1166;-76
2022/12/16 00:20:08;;;;;;;17.75;9.60;;;;;;;0.82;70.01;98377.75;346322;28;1271;-76
2022/12/16 00:20:20;;;;;;;17.90;9.65;;;;;;;0.85;70.21;98379.44;346259;28;1086;-75
2022/12/16 00:20:32;;;;;;;18.80;10.10;;;;;;;0.85;69.51;98382.00;346382;28;1069;-76
2022/12/16 00:20:46;;;;;;;18.77;10.13;;;;;;;0.81;70.36;98385.47;344541;28;1015;-76
2022/12/16 00:20:59;;;;;;;19.23;10.50;;;;;;;0.83;69.75;98388.84;344859;28;1170;-75
2022/12/16 00:21:11;;;;;;;20.23;10.85;;;;;;;0.75;69.79;98387.22;344851;28;1071;-76
2022/12/16 00:21:28;;;;;;;21.83;10.85;;;;;;;0.70;70.20;98383.88;344728;28;1293;-76
2022/12/16 00:21:40;;;;;;;22.55;10.57;;;;;;;0.62;70.69;98390.78;344437;28;1709;-77
2022/12/16 00:21:52;;;;;;;18.77;10.07;;;;;;;0.60;70.12;98387.41;343509;28;1835;-76
2022/12/16 00:22:06;;;;;;;18.63;10.00;;;;;;;0.54;70.50;98388.34;343805;28;1311;-76
2022/12/16 00:22:19;;;;;;;19.73;10.00;;;;;;;0.49;70.72;98390.09;343931;28;1629;-76
2022/12/16 00:22:31;;;;;;;19.48;10.25;;;;;;;0.47;70.67;98393.56;343618;28;1325;-77
2022/12/16 00:22:42;;;;;;;19.67;10.23;;;;;;;0.37;71.38;98391.09;343107;28;1567;-75
2022/12/16 00:22:54;;;;;;;19.75;10.00;;;;;;;0.39;70.82;98388.53;344682;28;1114;-76
2022/12/16 00:23:06;;;;;;;20.08;10.05;;;;;;;0.31;71.39;98391.19;344683;28;2022;-75
2022/12/16 00:23:19;;;;;;;22.02;10.20;;;;;;;0.33;71.22;98386.06;344353;28;1441;-75
2022/12/16 00:23:32;;;;;;;20.92;10.25;;;;;;;0.34;71.05;98393.72;344636;28;1055;-75
2022/12/16 00:23:45;;;;;;;19.98;10.45;;;;;;;0.35;71.92;98390.28;344772;28;1259;-75
2022/12/16 00:23:57;;;;;;;19.58;10.25;;;;;;;0.31;72.05;98386.06;344916;28;1041;-76
2022/12/16 00:24:09;;;;;;;19.83;10.35;;;;;;;0.24;71.46;98393.81;343287;28;1028;-76
2022/12/16 00:24:21;;;;;;;18.95;9.88;;;;;;;0.19;71.83;98396.44;342023;28;1172;-76
2022/12/16 00:24:33;;;;;;;17.95;9.52;;;;;;;0.11;71.92;98403.34;342574;28;1035;-76
2022/12/16 00:24:45;;;;;;;16.90;9.45;;;;;;;0.10;71.67;98394.84;343003;28;1189;-75
2022/12/16 00:24:57;;;;;;;17.42;9.75;;;;;;;0.08;71.73;98394.00;343396;28;1056;-75
2022/12/16 00:25:09;;;;;;;18.05;9.88;;;;;;;0.09;71.26;98390.56;342907;28;2147;-75
2022/12/16 00:25:21;;;;;;;19.83;10.18;;;;;;;0.05;71.41;98398.28;343030;28;2156;-75
2022/12/16 00:25:33;;;;;;;19.77;10.13;;;;;;;0.07;70.95;98396.56;343264;28;1177;-76
2022/12/16 00:25:45;;;;;;;20.90;10.50;;;;;;;0.06;71.29;98399.97;343393;28;1064;-75
2022/12/16 00:25:57;;;;;;;20.10;10.38;;;;;;;0.02;71.28;98394.06;343268;28;1139;-76
2022/12/16 00:26:11;;;;;;;19.48;10.60;;;;;;;-0.03;70.61;98396.66;343639;28;1043;-76
2022/12/16 00:26:23;;;;;;;19.67;10.60;;;;;;;-0.03;70.28;98395.81;343882;28;1339;-76
2022/12/16 00:26:35;;;;;;;19.98;10.65;;;;;;;-0.06;71.02;98400.94;344442;28;1488;-76
2022/12/16 00:26:47;;;;;;;19.35;10.32;;;;;;;-0.11;70.20;98403.53;344311;28;1814;-75
2022/12/16 00:26:59;;;;;;;19.17;10.00;;;;;;;-0.12;70.67;98399.31;344911;28;1123;-76
2022/12/16 00:27:11;;;;;;;18.77;9.80;;;;;;;-0.14;70.19;98401.03;343492;28;1058;-75
2022/12/16 00:27:23;;;;;;;18.83;9.82;;;;;;;-0.16;70.84;98404.44;344333;28;1285;-74
2022/12/16 00:27:35;;;;;;;19.58;9.95;;;;;;;-0.15;70.79;98401.88;344862;28;1197;-74
2022/12/16 00:27:47;;;;;;;20.77;9.93;;;;;;;-0.14;71.07;98403.59;344661;28;1079;-74
2022/12/16 00:27:59;;;;;;;20.55;10.15;;;;;;;-0.15;71.78;98401.88;344874;28;1136;-74
2022/12/16 00:28:13;;;;;;;19.42;10.05;;;;;;;-0.11;71.38;98398.44;341340;28;4817;-74
2022/12/16 00:28:25;;;;;;;20.58;10.50;;;;;;;-0.06;72.06;98409.47;343491;28;1213;-74
2022/12/16 00:28:38;;;;;;;20.35;10.45;;;;;;;-0.03;72.19;98401.75;344461;28;1494;-74
2022/12/16 00:28:50;;;;;;;19.83;9.95;;;;;;;0.03;72.06;98400.00;343930;28;3117;-74
2022/12/16 00:29:04;;;;;;;19.83;10.00;;;;;;;0.07;71.29;98402.50;344735;28;1236;-74
2022/12/16 00:29:16;;;;;;;19.27;9.95;;;;;;;0.13;72.16;98401.59;343477;28;1310;-74
2022/12/16 00:29:28;;;;;;;17.77;9.43;;;;;;;0.17;71.85;98403.25;346154;28;1077;-74
2022/12/16 00:29:40;;;;;;;17.80;9.68;;;;;;;0.21;71.69;98410.03;346016;28;1070;-74
2022/12/16 00:29:52;;;;;;;18.27;9.73;;;;;;;0.25;71.51;98401.47;346069;28;1254;-74
2022/12/16 00:30:05;;;;;;;19.63;10.05;;;;;;;0.29;71.20;98413.34;346340;28;1099;-74
2022/12/16 00:30:17;;;;;;;17.45;9.88;;;;;;;0.33;71.00;98399.66;346147;28;1253;-74
2022/12/16 00:30:28;;;;;;;18.02;10.15;;;;;;;0.37;71.13;98403.88;345700;28;2272;-74
2022/12/16 00:30:42;;;;;;;18.75;10.18;;;;;;;0.41;70.91;98402.16;344770;28;1015;-74
2022/12/16 00:30:55;;;;;;;19.77;10.38;;;;;;;0.45;70.93;98403.78;344705;28;1107;-74
2022/12/16 00:31:07;;;;;;;19.80;10.45;;;;;;;0.50;71.40;98401.19;344734;28;1091;-74
2022/12/16 00:31:19;;;;;;;18.50;10.02;;;;;;;0.52;70.84;98400.28;345232;28;1311;-74
2022/12/16 00:31:31;;;;;;;17.48;9.50;;;;;;;0.57;70.43;98397.69;346135;28;1218;-74
2022/12/16 00:31:46;;;;;;;18.05;9.25;;;;;;;0.62;70.73;98401.03;346196;28;1062;-74
2022/12/16 00:31:59;;;;;;;18.98;9.32;;;;;;;0.65;70.24;98401.00;345595;28;2106;-74
2022/12/16 00:32:11;;;;;;;19.23;9.65;;;;;;;0.67;70.71;98404.38;346005;28;1752;-74
2022/12/16 00:32:23;;;;;;;18.08;10.00;;;;;;;0.69;70.20;98402.66;346000;28;1448;-74
2022/12/16 00:32:35;;;;;;;17.98;10.25;;;;;;;0.70;70.07;98403.47;346516;28;1139;-74
2022/12/16 00:32:47;;;;;;;18.15;10.10;;;;;;;0.68;69.64;98411.16;346247;28;1108;-74
2022/12/16 00:32:58;;;;;;;18.75;9.85;;;;;;;0.59;70.58;98412.13;346264;28;1169;-74
2022/12/16 00:33:11;;;;;;;20.65;10.52;;;;;;;0.58;70.56;98409.59;344850;28;1195;-74
2022/12/16 00:33:25;;;;;;;21.05;10.68;;;;;;;0.48;70.62;98408.84;345710;28;1358;-74
2022/12/16 00:33:37;;;;;;;20.00;10.30;;;;;;;0.44;71.48;98401.25;346460;28;1109;-74
2022/12/16 00:33:51;;;;;;;19.60;10.15;;;;;;;0.37;71.91;98403.88;345994;28;1030;-74
2022/12/16 00:34:03;;;;;;;19.00;10.10;;;;;;;0.41;71.22;98411.53;346147;28;1582;-74
2022/12/16 00:34:16;;;;;;;19.90;10.13;;;;;;;0.43;71.82;98405.53;346150;28;1050;-74
2022/12/16 00:34:27;;;;;;;21.55;10.43;;;;;;;0.45;71.90;98405.50;344800;28;1232;-74
2022/12/16 00:34:39;;;;;;;21.92;10.65;;;;;;;0.37;71.83;98406.44;344880;28;1829;-74
2022/12/16 00:34:52;;;;;;;21.77;10.98;;;;;;;0.39;71.17;98414.09;344698;28;1049;-74
2022/12/16 00:35:05;;;;;;;20.63;10.93;;;;;;;0.30;72.02;98409.06;343297;28;1074;-74
2022/12/16 00:35:17;;;;;;;19.00;10.65;;;;;;;0.24;72.10;98420.22;342139;28;1220;-74
2022/12/16 00:35:30;;;;;;;19.17;10.68;;;;;;;0.31;71.73;98406.50;343395;28;1556;-74
2022/12/16 00:35:43;;;;;;;20.85;10.63;;;;;;;0.28;72.09;98416.78;343689;28;1075;-74
2022/12/16 00:35:57;;;;;;;20.25;10.60;;;;;;;0.24;71.74;98419.38;343379;28;1048;-74
2022/12/16 00:36:09;;;;;;;19.40;10.48;;;;;;;0.21;71.72;98414.31;343150;28;1052;-74
2022/12/16 00:36:21;;;;;;;19.67;10.32;;;;;;;0.18;72.13;98416.03;343288;28;1268;-74
2022/12/16 00:36:33;;;;;;;20.42;10.35;;;;;;;0.16;71.84;98411.78;343087;28;1183;-74
2022/12/16 00:36:45;;;;;;;18.92;10.55;;;;;;;0.18;71.74;98410.06;343452;28;1276;-74
2022/12/16 00:36:57;;;;;;;18.88;10.80;;;;;;;0.14;71.29;98416.06;343540;28;1821;-74
2022/12/16 00:37:10;;;;;;;18.95;10.57;;;;;;;0.08;71.56;98408.47;343850;28;1824;-74
2022/12/16 00:37:22;;;;;;;18.48;10.18;;;;;;;0.08;71.07;98411.00;345498;28;1215;-74
2022/12/16 00:37:34;;;;;;;18.67;10.35;;;;;;;0.05;71.39;98408.50;345906;28;1636;-74
2022/12/16 00:37:46;;;;;;;19.83;10.63;;;;;;;0.02;71.89;98413.63;345684;28;2556;-74
2022/12/16 00:37:58;;;;;;;21.65;10.70;;;;;;;-0.03;70.94;98417.09;345318;28;5500;-74
2022/12/16 00:38:10;;;;;;;22.45;10.82;;;;;;;-0.01;71.52;98410.25;343112;28;1019;-74
2022/12/16 00:38:25;;;;;;;21.52;10.75;;;;;;;-0.01;70.86;98410.25;343996;28;1070;-74
2022/12/16 00:38:37;;;;;;;20.30;10.65;;;;;;;0.01;71.20;98411.97;344057;28;1096;-74
2022/12/16 00:38:51;;;;;;;19.02;10.82;;;;;;;-0.01;71.39;98414.53;345060;28;1110;-74
2022/12/16 00:39:04;;;;;;;17.67;10.45;;;;;;;-0.02;71.07;98415.38;344945;28;1104;-74
2022/12/16 00:39:16;;;;;;;17.77;10.25;;;;;;;0.00;71.88;98411.13;344614;28;1226;-74
2022/12/16 00:39:28;;;;;;;18.80;10.35;;;;;;;-0.03;71.01;98411.97;344776;28;1095;-74
2022/12/16 00:39:40;;;;;;;20.95;10.60;;;;;;;0.02;71.00;98418.75;344196;28;2265;-74
2022/12/16 00:39:52;;;;;;;22.05;10.93;;;;;;;0.05;70.87;98414.47;344584;28;1574;-74
2022/12/16 00:40:06;;;;;;;20.63;10.32;;;;;;;0.09;70.84;98415.28;344536;28;1195;-74
2022/12/16 00:40:19;;;;;;;18.63;10.18;;;;;;;0.05;70.93;98408.50;345934;28;1260;-74
2022/12/16 00:40:31;;;;;;;19.33;10.13;;;;;;;0.10;71.06;98416.97;345318;28;1911;-74
2022/12/16 00:40:43;;;;;;;19.77;10.23;;;;;;;0.09;71.50;98413.56;345607;28;1289;-74
2022/12/16 00:40:55;;;;;;;20.00;10.60;;;;;;;0.11;71.25;98413.56;346022;28;1075;-74
2022/12/16 00:41:08;;;;;;;21.73;10.85;;;;;;;0.10;71.37;98412.72;346016;28;1055;-74
2022/12/16 00:41:20;;;;;;;21.52;10.93;;;;;;;0.11;71.76;98416.09;346050;28;1239;-74
2022/12/16 00:41:32;;;;;;;20.52;10.75;;;;;;;0.15;71.67;98415.22;346322;28;1186;-74
2022/12/16 00:41:46;;;;;;;21.13;10.80;;;;;;;0.17;71.73;98413.47;346042;28;1167;-74
2022/12/16 00:41:58;;;;;;;22.08;10.98;;;;;;;0.22;71.30;98415.97;345719;28;1206;-74
2022/12/16 00:42:10;;;;;;;22.33;10.95;;;;;;;0.24;71.89;98415.09;344716;28;1263;-74
2022/12/16 00:42:22;;;;;;;21.88;11.00;;;;;;;0.26;71.49;98408.25;345486;28;1279;-74
2022/12/16 00:42:33;;;;;;;20.60;10.77;;;;;;;0.30;71.36;98409.06;346040;28;1084;-74
2022/12/16 00:42:45;;;;;;;20.10;10.65;;;;;;;0.27;71.80;98409.13;346147;28;1047;-74
2022/12/16 00:42:57;;;;;;;19.95;10.63;;;;;;;0.32;71.24;98413.34;344792;28;1213;-74
2022/12/16 00:43:09;;;;;;;20.55;10.88;;;;;;;0.33;71.21;98404.78;344742;28;1144;-74
2022/12/16 00:43:21;;;;;;;20.10;10.95;;;;;;;0.37;71.99;98406.44;344394;28;1732;-74
2022/12/16 00:43:33;;;;;;;19.85;10.52;;;;;;;0.42;71.96;98408.09;344955;28;1078;-74
2022/12/16 00:43:46;;;;;;;19.13;10.32;;;;;;;0.46;71.20;98414.84;344839;28;1239;-74
2022/12/16 00:43:58;;;;;;;19.92;10.30;;;;;;;0.48;71.53;98408.84;344930;28;1119;-74
2022/12/16 00:44:10;;;;;;;19.00;10.27;;;;;;;0.52;71.11;98413.06;344898;28;1095;-74
2022/12/16 00:44:22;;;;;;;17.75;9.82;;;;;;;0.56;71.43;98412.19;345403;28;1103;-74
2022/12/16 00:44:34;;;;;;;17.73;9.65;;;;;;;0.58;70.78;98415.59;346019;28;1617;-74
2022/12/16 00:44:46;;;;;;;17.95;9.77;;;;;;;0.63;70.80;98412.97;343286;28;1341;-74
2022/12/16 00:44:58;;;;;;;20.23;10.52;;;;;;;0.65;70.96;98411.22;343412;28;1229;-74
2022/12/16 00:45:10;;;;;;;19.48;10.32;;;;;;;0.66;71.17;98412.06;343451;28;1049;-74
2022/12/16 00:45:22;;;;;;;19.00;10.35;;;;;;;0.67;70.91;98417.16;344229;28;1168;-74
2022/12/16 00:45:34;;;;;;;19.50;10.40;;;;;;;0.68;70.69;98410.34;344754;28;1253;-74
2022/12/16 00:45:47;;;;;;;20.15;10.60;;;;;;;0.70;71.45;98413.72;345006;28;1110;-74
2022/12/16 00:45:59;;;;;;;20.30;10.70;;;;;;;0.72;70.40;98425.59;345901;28;1907;-74
2022/12/16 00:46:11;;;;;;;19.55;10.35;;;;;;;0.75;70.60;98417.91;346003;28;1052;-74
2022/12/16 00:46:23;;;;;;;20.48;10.45;;;;;;;0.77;70.87;98416.19;344806;28;1361;-74
2022/12/16 00:46:35;;;;;;;20.83;10.45;;;;;;;0.78;70.43;98415.31;344376;28;1643;-74
2022/12/16 00:46:47;;;;;;;20.50;10.32;;;;;;;0.78;70.21;98412.75;344754;28;1546;-74
2022/12/16 00:46:59;;;;;;;19.02;10.02;;;;;;;0.80;70.17;98415.28;345036;28;1118;-74
2022/12/16 00:47:11;;;;;;;18.05;9.98;;;;;;;0.82;70.48;98417.84;346429;28;913;-74
2022/12/16 00:47:23;;;;;;;18.42;10.48;;;;;;;0.82;69.88;98417.84;345652;28;2016;-74
2022/12/16 00:47:35;;;;;;;19.23;10.80;;;;;;;0.84;70.52;98411.81;345969;28;1723;-74
2022/12/16 00:47:53;;;;;;;19.25;10.73;;;;;;;0.88;70.92;98415.19;344776;28;1031;-74
2022/12/16 00:48:06;;;;;;;19.52;10.65;;;;;;;0.88;69.96;98410.91;344809;28;1445;-74
2022/12/16 00:48:21;;;;;;;20.02;10.35;;;;;;;0.89;70.76;98417.72;344771;28;1387;-74
2022/12/16 00:48:34;;;;;;;21.35;10.98;;;;;;;0.91;70.44;98417.72;346321;28;970;-74
2022/12/16 00:48:46;;;;;;;22.58;11.13;;;;;;;0.92;70.27;98414.28;346236;28;1083;-74
2022/12/16 00:48:58;;;;;;;23.40;10.98;;;;;;;0.95;70.87;98414.25;346145;28;1039;-74
2022/12/16 00:49:10;;;;;;;21.17;10.75;;;;;;;0.94;70.24;98413.38;344828;28;1136;-74
2022/12/16 00:49:22;;;;;;;20.27;10.95;;;;;;;0.97;70.79;98417.63;344843;28;1301;-74
2022/12/16 00:49:34;;;;;;;21.42;11.27;;;;;;;0.99;70.33;98415.91;344693;28;1091;-74
2022/12/16 00:49:46;;;;;;;20.77;10.90;;;;;;;0.98;70.41;98415.03;344116;28;1967;-74
2022/12/16 00:49:58;;;;;;;19.70;10.85;;;;;;;1.00;70.63;98415.00;343346;28;1051;-74
2022/12/16 00:50:10;;;;;;;19.20;10.38;;;;;;;1.03;70.46;98417.53;343339;28;1180;-74
2022/12/16 00:50:22;;;;;;;18.02;9.80;;;;;;;1.04;69.94;98414.09;343359;28;1298;-74
2022/12/16 00:50:34;;;;;;;17.45;9.73;;;;;;;1.03;69.76;98412.44;343224;28;1062;-74
2022/12/16 00:50:51;;;;;;;19.05;10.15;;;;;;;1.05;69.33;98420.94;343712;28;1051;-74
2022/12/16 00:51:06;;;;;;;19.98;9.80;;;;;;;1.07;70.01;98414.06;343408;28;1321;-74
2022/12/16 00:51:18;;;;;;;17.88;9.63;;;;;;;1.07;69.95;98415.81;344843;28;1329;-74
2022/12/16 00:51:30;;;;;;;16.95;9.52;;;;;;;1.08;70.09;98415.75;345964;28;1246;-74
2022/12/16 00:51:42;;;;;;;16.77;9.30;;;;;;;1.11;69.77;98420.00;345139;28;2068;-74
2022/12/16 00:51:54;;;;;;;18.05;9.50;;;;;;;1.10;70.00;98419.13;343816;28;1432;-74
2022/12/16 00:52:06;;;;;;;18.67;9.73;;;;;;;1.12;69.57;98414.00;346061;28;1083;-74
2022/12/16 00:52:18;;;;;;;18.30;9.60;;;;;;;1.12;69.62;98414.84;346215;28;1371;-74
2022/12/16 00:52:30;;;;;;;16.75;9.48;;;;;;;1.14;69.28;98414.81;344756;28;1399;-74
2022/12/16 00:52:42;;;;;;;16.92;9.45;;;;;;;1.15;69.65;98417.38;344783;28;1059;-74
2022/12/16 00:52:54;;;;;;;18.05;9.48;;;;;;;1.14;69.67;98418.22;345245;28;712;-74
2022/12/16 00:53:06;;;;;;;18.35;9.32;;;;;;;1.15;69.32;98416.53;344807;28;1040;-74
2022/12/16 00:53:20;;;;;;;18.85;9.55;;;;;;;1.13;69.43;98416.53;345077;28;1282;-74
2022/12/16 00:53:32;;;;;;;18.58;9.48;;;;;;;1.12;69.44;98414.84;346314;28;1061;-74
2022/12/16 00:53:44;;;;;;;18.92;10.00;;;;;;;1.13;69.32;98416.53;345126;28;1589;-74
2022/12/16 00:53:56;;;;;;;20.13;10.63;;;;;;;1.13;68.80;98419.09;346150;28;1103;-74
2022/12/16 00:54:08;;;;;;;18.77;10.10;;;;;;;1.12;69.54;98417.41;346316;28;1175;-74
2022/12/16 00:54:20;;;;;;;17.63;10.05;;;;;;;1.11;68.88;98425.97;346096;28;1355;-74
2022/12/16 00:54:32;;;;;;;18.20;10.30;;;;;;;1.11;69.29;98418.28;344106;28;4963;-74
2022/12/16 00:54:44;;;;;;;18.98;10.35;;;;;;;1.11;69.30;98423.41;343684;28;3036;-74
2022/12/16 00:54:56;;;;;;;19.30;10.32;;;;;;;1.09;69.37;98425.13;343938;28;1738;-74
2022/12/16 00:55:08;;;;;;;18.42;10.20;;;;;;;1.08;69.30;98420.88;344816;28;1587;-74
2022/12/16 00:55:21;;;;;;;18.63;10.35;;;;;;;1.08;69.53;98420.88;344898;28;1120;-74
2022/12/16 00:55:33;;;;;;;18.65;10.20;;;;;;;1.09;69.22;98427.69;345976;28;1757;-74
2022/12/16 00:55:45;;;;;;;18.88;9.68;;;;;;;1.09;69.49;98425.13;343310;28;1320;-74
2022/12/16 00:56:07;;;;;;;19.48;9.77;;;;;;;1.09;69.62;98426.84;343598;28;1103;-74
2022/12/16 00:56:19;;;;;;;20.65;10.73;;;;;;;1.08;69.21;98426.00;343669;28;1331;-74
2022/12/16 00:56:31;;;;;;;19.27;9.90;;;;;;;1.07;69.47;98429.44;345132;28;1054;-74
2022/12/16 00:56:43;;;;;;;18.85;9.98;;;;;;;1.02;69.65;98431.19;344863;28;1286;-74
2022/12/16 00:56:55;;;;;;;18.35;10.00;;;;;;;1.00;70.03;98425.25;344446;28;1063;-74
2022/12/16 00:57:07;;;;;;;17.40;9.77;;;;;;;1.00;69.68;98428.66;344686;28;1098;-74
2022/12/16 00:57:19;;;;;;;17.23;9.40;;;;;;;1.01;70.36;98426.97;344616;28;1240;-74
2022/12/16 00:57:30;;;;;;;18.42;9.60;;;;;;;1.01;70.11;98429.53;344570;28;1259;-74
2022/12/16 00:57:43;;;;;;;19.40;10.18;;;;;;;1.03;69.74;98432.91;344833;28;1240;-74
2022/12/16 00:57:55;;;;;;;19.00;10.43;;;;;;;1.03;70.17;98432.03;343450;28;1060;-74
2022/12/16 00:58:07;;;;;;;18.05;10.23;;;;;;;1.03;70.12;98432.03;344561;28;1030;-74
2022/12/16 00:58:19;;;;;;;19.45;9.73;;;;;;;1.03;69.87;98430.34;344602;28;1090;-74
2022/12/16 00:58:31;;;;;;;20.10;9.67;;;;;;;1.04;70.30;98432.03;344490;28;1199;-74
2022/12/16 00:58:43;;;;;;;18.38;9.88;;;;;;;1.05;69.94;98422.63;344397;28;1053;-74
2022/12/16 00:58:55;;;;;;;18.55;10.48;;;;;;;1.06;70.21;98432.84;344816;28;1114;-74
2022/12/16 00:59:07;;;;;;;19.67;10.82;;;;;;;1.06;70.11;98426.88;343253;28;1202;-75
2022/12/16 00:59:19;;;;;;;21.50;10.43;;;;;;;1.06;69.72;98432.84;343330;28;1125;-74
2022/12/16 00:59:31;;;;;;;21.65;10.15;;;;;;;1.07;69.90;98432.00;343536;28;1058;-74
2022/12/16 00:59:43;;;;;;;20.35;10.13;;;;;;;1.07;70.25;98433.72;343214;28;1109;-74
2022/12/16 00:59:54;;;;;;;19.08;10.27;;;;;;;1.06;69.95;98432.84;343172;28;1233;-74
2022/12/16 01:00:11;;;;;;;19.58;10.35;;;;;;;1.07;70.01;98428.59;344682;28;1102;-74
2022/12/16 01:00:23;;;;;;;19.40;9.88;;;;;;;1.07;70.15;98432.00;344804;28;1296;-74
2022/12/16 01:00:36;;;;;;;18.95;10.20;;;;;;;1.07;70.80;98434.56;344790;28;1074;-74
2022/12/16 01:00:50;;;;;;;20.15;10.68;;;;;;;1.07;70.23;98429.44;343497;28;1095;-75